Time;durP1;ratioP1;P1;durP2;ratioP2;P2;SDS_P1;SDS_P2;PMS_P1;PMS_P2;Temp;Humidity;BMP_temperature;BMP_pressure;BME280_temperature;BME280_humidity;BME280_pressure;Samples;Min_cycle;Max_cycle;Signal;HPM_P1;HPM_P2
2022/10/22 00:00:11;;;;;;;;;;;;;;;20.66;67.01;99050.22;7318615;19;130675;-38
2022/10/22 00:02:36;;;;;;;;;;;;;;;20.67;66.77;99055.31;7315836;19;129120;-37
2022/10/22 00:05:02;;;;;;;;;;;;;;;20.69;67.01;99070.84;7317261;19;129530;-39
2022/10/22 00:07:27;;;;;;;;;;;;;;;20.66;66.96;99065.88;7315294;19;130238;-39
2022/10/22 00:09:52;;;;;;;;;;;;;;;20.67;66.36;99057.09;7318329;19;129027;-37
2022/10/22 00:12:17;;;;;;;;;;;;;;;20.66;66.58;99058.03;7317428;19;129023;-39
2022/10/22 00:14:42;;;;;;;;;;;;;;;20.66;67.00;99044.97;7317433;19;130162;-39
2022/10/22 00:17:08;;;;;;;;;;;;;;;20.67;67.16;99046.66;7314924;19;130522;-38
2022/10/22 00:19:33;;;;;;;;;;;;;;;20.68;66.95;99035.22;7318808;19;129159;-39
2022/10/22 00:21:58;;;;;;;;;;;;;;;20.70;66.50;99033.28;7315143;19;129310;-36
2022/10/22 00:24:24;;;;;;;;;;;;;;;20.68;66.61;99028.22;7316894;19;131366;-39
2022/10/22 00:26:49;;;;;;;;;;;;;;;20.69;66.74;99029.03;7314300;19;129643;-40
2022/10/22 00:29:17;;;;;;;;;;;;;;;20.66;67.10;99032.75;7317001;19;129950;-39
2022/10/22 00:31:48;;;;;;;;;;;;;;;20.67;67.11;99033.59;7315178;19;130255;-40
2022/10/22 00:34:13;;;;;;;;;;;;;;;20.66;67.25;99022.31;7316247;19;131252;-38
2022/10/22 00:36:38;;;;;;;;;;;;;;;20.65;67.33;99022.47;7316496;19;131208;-40
2022/10/22 00:39:04;;;;;;;;;;;;;;;20.64;67.04;99018.22;7316955;19;129302;-39
2022/10/22 00:41:29;;;;;;;;;;;;;;;20.65;66.93;99015.44;7315562;19;129780;-37
2022/10/22 00:44:04;;;;;;;;;;;;;;;20.67;67.09;99017.91;7315807;19;129348;-40
2022/10/22 00:46:29;;;;;;;;;;;;;;;20.66;67.02;99011.03;7314782;19;129818;-39
2022/10/22 00:48:57;;;;;;;;;;;;;;;20.66;67.17;99024.09;7312787;19;129319;-40
2022/10/22 00:51:24;;;;;;;;;;;;;;;20.67;66.88;99023.13;7315588;19;129008;-36
2022/10/22 00:53:52;;;;;;;;;;;;;;;20.57;67.28;99010.16;7314159;19;129791;-38
2022/10/22 00:56:18;;;;;;;;;;;;;;;20.65;67.12;99030.28;7314941;19;130274;-38
2022/10/22 00:58:46;;;;;;;;;;;;;;;20.64;67.06;99020.81;7312463;19;129367;-38
2022/10/22 01:01:15;;;;;;;;;;;;;;;20.63;67.40;99021.78;7316647;19;129219;-38
2022/10/22 01:03:40;;;;;;;;;;;;;;;20.66;66.88;99024.09;7312457;19;130953;-40
2022/10/22 01:06:05;;;;;;;;;;;;;;;20.64;67.20;99021.63;7315811;19;130530;-39
2022/10/22 01:08:49;;;;;;;;;;;;;;;20.57;66.83;99020.59;7314159;19;129536;-38
2022/10/22 01:11:23;;;;;;;;;;;;;;;20.64;67.11;99029.47;7313278;19;129194;-38
2022/10/22 01:13:56;;;;;;;;;;;;;;;20.67;67.21;99030.97;7313715;19;129315;-40
2022/10/22 01:16:27;;;;;;;;;;;;;;;20.63;67.23;99024.38;7314423;19;130687;-40
2022/10/22 01:19:00;;;;;;;;;;;;;;;20.54;67.17;99010.41;7312623;19;130084;-40
2022/10/22 01:21:31;;;;;;;;;;;;;;;20.63;67.52;99035.66;7313597;19;129587;-39
2022/10/22 01:24:02;;;;;;;;;;;;;;;20.64;67.30;99032.06;7314916;19;129071;-37
2022/10/22 01:26:30;;;;;;;;;;;;;;;20.65;66.49;99032.91;7315728;19;130319;-40
2022/10/22 01:29:01;;;;;;;;;;;;;;;20.61;66.75;99031.53;7311815;19;128878;-39
2022/10/22 01:31:33;;;;;;;;;;;;;;;20.65;66.76;99032.91;7313712;19;129032;-38
2022/10/22 01:33:59;;;;;;;;;;;;;;;20.65;67.33;99030.28;7314269;19;129897;-38
2022/10/22 01:36:26;;;;;;;;;;;;;;;20.65;66.55;99032.91;7315457;19;130727;-38
2022/10/22 01:38:52;;;;;;;;;;;;;;;20.66;66.75;99029.31;7310943;19;129236;-40
2022/10/22 01:41:17;;;;;;;;;;;;;;;20.64;66.69;99026.06;7314575;19;128931;-40
2022/10/22 01:43:43;;;;;;;;;;;;;;;20.71;67.16;99027.09;7311531;19;130336;-38
2022/10/22 01:46:09;;;;;;;;;;;;;;;20.66;66.87;99030.16;7315522;19;129350;-39
2022/10/22 01:48:54;;;;;;;;;;;;;;;20.66;67.11;99024.09;7311285;19;129764;-36
2022/10/22 01:51:19;;;;;;;;;;;;;;;20.67;66.57;99025.75;7313854;19;129005;-39
2022/10/22 01:53:44;;;;;;;;;;;;;;;20.67;67.11;99020.53;7313479;19;130143;-40
2022/10/22 01:56:09;;;;;;;;;;;;;;;20.56;66.96;99007.69;7313711;19;129382;-39
2022/10/22 01:58:35;;;;;;;;;;;;;;;20.65;66.63;99025.06;7312209;19;130208;-38
2022/10/22 02:01:12;;;;;;;;;;;;;;;20.65;67.14;99022.47;7313272;19;129706;-38
2022/10/22 02:03:44;;;;;;;;;;;;;;;20.66;66.77;99018.88;7310947;19;129528;-38
2022/10/22 02:06:14;;;;;;;;;;;;;;;20.63;66.97;99016.56;7313583;19;130385;-38
2022/10/22 02:08:40;;;;;;;;;;;;;;;20.64;66.76;99020.81;7309986;19;129417;-36
2022/10/22 02:11:05;;;;;;;;;;;;;;;20.61;66.85;99026.31;7312687;19;129033;-39
2022/10/22 02:13:36;;;;;;;;;;;;;;;20.66;67.39;99024.91;7310896;19;130085;-39
2022/10/22 02:16:03;;;;;;;;;;;;;;;20.67;67.15;99020.53;7311268;19;130662;-37
2022/10/22 02:18:30;;;;;;;;;;;;;;;20.63;67.29;99014.78;7310688;19;129177;-39
2022/10/22 02:20:58;;;;;;;;;;;;;;;20.62;66.76;99015.75;7309389;19;130141;-37
2022/10/22 02:23:23;;;;;;;;;;;;;;;20.64;67.37;99020.81;7309928;19;132061;-37
2022/10/22 02:25:52;;;;;;;;;;;;;;;20.64;67.06;99026.06;7313509;19;130521;-39
2022/10/22 02:28:28;;;;;;;;;;;;;;;20.66;66.94;99013.63;7312493;19;129828;-39
2022/10/22 02:30:56;;;;;;;;;;;;;;;20.66;66.98;99013.63;7311940;19;129692;-37
2022/10/22 02:33:25;;;;;;;;;;;;;;;20.67;66.50;99020.53;7312200;19;129946;-39
2022/10/22 02:35:51;;;;;;;;;;;;;;;20.69;66.56;99008.16;7312916;19;129608;-38
2022/10/22 02:38:16;;;;;;;;;;;;;;;20.67;67.17;99004.84;7309852;19;129270;-38
2022/10/22 02:40:42;;;;;;;;;;;;;;;20.65;66.71;99001.56;7313088;19;129093;-40
2022/10/22 02:43:07;;;;;;;;;;;;;;;20.58;66.94;98990.88;7309944;19;131061;-39
2022/10/22 02:45:33;;;;;;;;;;;;;;;20.65;66.88;99006.78;7313245;19;132139;-39
2022/10/22 02:47:58;;;;;;;;;;;;;;;20.64;67.26;99007.78;7309673;19;131421;-38
2022/10/22 02:50:23;;;;;;;;;;;;;;;20.65;66.88;99017.22;7312596;19;128829;-36
2022/10/22 02:52:49;;;;;;;;;;;;;;;20.65;66.74;99014.63;7310980;19;130443;-39
2022/10/22 02:55:14;;;;;;;;;;;;;;;20.63;67.22;99001.72;7311327;19;129781;-40
2022/10/22 02:57:39;;;;;;;;;;;;;;;20.61;67.24;99010.66;7310758;19;129259;-38
2022/10/22 03:00:06;;;;;;;;;;;;;;;20.61;66.79;99015.88;7312005;19;129015;-38
2022/10/22 03:02:31;;;;;;;;;;;;;;;20.60;67.60;99009.84;7309886;19;130657;-39
2022/10/22 03:04:56;;;;;;;;;;;;;;;20.61;66.92;99019.31;7311509;19;131210;-40
2022/10/22 03:07:22;;;;;;;;;;;;;;;20.63;66.80;99027.84;7310834;19;129189;-38
2022/10/22 03:09:47;;;;;;;;;;;;;;;20.63;67.48;99027.84;7312032;19;129416;-39
2022/10/22 03:12:12;;;;;;;;;;;;;;;20.67;67.07;99023.13;7310211;19;130128;-39
2022/10/22 03:14:37;;;;;;;;;;;;;;;20.66;66.68;99024.09;7310545;19;129416;-39
2022/10/22 03:17:03;;;;;;;;;;;;;;;20.65;67.32;99031.13;7310629;19;129811;-38
2022/10/22 03:19:28;;;;;;;;;;;;;;;20.61;66.99;99015.88;7312102;19;128913;-40
2022/10/22 03:22:06;;;;;;;;;;;;;;;20.65;66.74;99009.41;7309424;19;129317;-39
2022/10/22 03:24:35;;;;;;;;;;;;;;;20.63;67.30;99029.63;7310388;19;131097;-38
2022/10/22 03:27:01;;;;;;;;;;;;;;;20.63;67.03;99022.59;7306611;19;129292;-41
2022/10/22 03:29:26;;;;;;;;;;;;;;;20.68;67.00;99006.47;7311905;19;129212;-39
2022/10/22 03:31:52;;;;;;;;;;;;;;;20.62;66.86;99018.38;7308918;19;131178;-38
2022/10/22 03:34:17;;;;;;;;;;;;;;;20.63;67.26;99025.22;7311463;19;130724;-39
2022/10/22 03:36:43;;;;;;;;;;;;;;;20.63;66.61;99006.94;7309150;19;129183;-39
2022/10/22 03:39:09;;;;;;;;;;;;;;;20.65;66.97;99007.63;7311059;19;129793;-39
2022/10/22 03:41:35;;;;;;;;;;;;;;;20.59;66.82;99023.84;7308645;19;130615;-36
2022/10/22 03:44:01;;;;;;;;;;;;;;;20.64;66.75;99026.06;7307657;19;130697;-40
2022/10/22 03:46:27;;;;;;;;;;;;;;;20.60;66.74;99029.91;7310859;19;129295;-39
2022/10/22 03:48:52;;;;;;;;;;;;;;;20.53;67.50;99015.78;7300104;19;129113;-39
2022/10/22 03:51:17;;;;;;;;;;;;;;;20.62;67.08;99027.97;7308366;19;129057;-38
2022/10/22 03:53:42;;;;;;;;;;;;;;;20.61;67.27;99039.38;7308914;19;130347;-39
2022/10/22 03:56:09;;;;;;;;;;;;;;;20.59;66.84;99034.31;7310132;19;128843;-38
2022/10/22 03:58:34;;;;;;;;;;;;;;;20.62;66.79;99033.22;7307093;19;129510;-38
2022/10/22 04:01:03;;;;;;;;;;;;;;;20.62;66.84;99043.66;7309801;19;130491;-41
2022/10/22 04:03:29;;;;;;;;;;;;;;;20.64;66.85;99041.72;7306860;19;130350;-39
2022/10/22 04:05:59;;;;;;;;;;;;;;;20.66;67.09;99037.16;7312092;19;129545;-38
2022/10/22 04:08:24;;;;;;;;;;;;;;;20.59;67.21;99038.72;7307192;19;129442;-39
2022/10/22 04:10:50;;;;;;;;;;;;;;;20.61;67.35;99036.75;7308729;19;129538;-39
2022/10/22 04:13:15;;;;;;;;;;;;;;;20.53;66.56;99013.19;7310270;19;130714;-40
2022/10/22 04:15:40;;;;;;;;;;;;;;;20.62;67.11;99022.75;7310340;19;129877;-39
2022/10/22 04:18:05;;;;;;;;;;;;;;;20.53;67.01;99010.56;7307753;19;129075;-38
2022/10/22 04:20:31;;;;;;;;;;;;;;;20.65;66.69;99027.69;7308690;19;130573;-39
2022/10/22 04:22:56;;;;;;;;;;;;;;;20.64;66.99;99036.50;7306648;19;130593;-39
2022/10/22 04:25:21;;;;;;;;;;;;;;;20.66;67.28;99034.53;7309434;19;129435;-38
2022/10/22 04:27:46;;;;;;;;;;;;;;;20.66;67.01;99034.53;7307807;19;129889;-37
2022/10/22 04:30:12;;;;;;;;;;;;;;;20.64;67.31;99033.88;7308914;19;129773;-39
2022/10/22 04:32:37;;;;;;;;;;;;;;;20.63;67.07;99045.28;7307089;19;130020;-39
2022/10/22 04:35:03;;;;;;;;;;;;;;;20.61;66.72;99048.03;7310310;19;129162;-38
2022/10/22 04:37:28;;;;;;;;;;;;;;;20.64;66.99;99041.72;7309833;19;129839;-37
2022/10/22 04:39:53;;;;;;;;;;;;;;;20.63;67.01;99045.28;7315458;19;132169;-38
2022/10/22 04:42:18;;;;;;;;;;;;;;;20.56;67.38;99034.59;7314349;19;130492;-39
2022/10/22 04:44:44;;;;;;;;;;;;;;;20.59;67.15;99044.75;7316406;19;128933;-39
2022/10/22 04:47:09;;;;;;;;;;;;;;;20.58;67.33;99050.94;7314346;19;129335;-39
2022/10/22 04:49:34;;;;;;;;;;;;;;;20.61;66.89;99036.75;7315158;19;129391;-40
2022/10/22 04:51:59;;;;;;;;;;;;;;;20.61;67.29;99036.75;7314183;19;129681;-38
2022/10/22 04:54:25;;;;;;;;;;;;;;;20.60;66.99;99040.34;7315446;19;128943;-39
2022/10/22 04:56:50;;;;;;;;;;;;;;;20.64;67.46;99044.34;7315431;19;129230;-38
2022/10/22 04:59:15;;;;;;;;;;;;;;;20.63;66.47;99029.63;7315669;19;130194;-40
2022/10/22 05:01:42;;;;;;;;;;;;;;;20.68;66.67;99036.03;7316107;19;129996;-39
2022/10/22 05:04:09;;;;;;;;;;;;;;;20.63;66.70;99032.22;7313149;19;129525;-39
2022/10/22 05:06:35;;;;;;;;;;;;;;;20.51;67.08;99002.88;7316012;19;130309;-41
2022/10/22 05:09:02;;;;;;;;;;;;;;;20.61;67.34;99018.47;7312194;19;129503;-39
2022/10/22 05:11:30;;;;;;;;;;;;;;;20.65;67.03;99028.50;7316032;19;130400;-39
2022/10/22 05:13:56;;;;;;;;;;;;;;;20.64;67.09;99031.28;7316266;19;129235;-40
2022/10/22 05:16:21;;;;;;;;;;;;;;;20.62;67.06;99033.22;7315247;19;129266;-39
2022/10/22 05:18:46;;;;;;;;;;;;;;;20.58;66.95;99024.00;7312245;19;130738;-38
2022/10/22 05:21:14;;;;;;;;;;;;;;;20.65;66.70;99032.91;7314537;19;131406;-38
2022/10/22 05:23:40;;;;;;;;;;;;;;;20.63;66.67;99038.28;7312695;19;130349;-38
2022/10/22 05:26:06;;;;;;;;;;;;;;;20.62;67.16;99043.66;7314127;19;129403;-39
2022/10/22 05:28:32;;;;;;;;;;;;;;;20.62;67.07;99048.88;7312038;19;130471;-39
2022/10/22 05:30:58;;;;;;;;;;;;;;;20.59;67.49;99057.00;7314946;19;129315;-38
2022/10/22 05:33:24;;;;;;;;;;;;;;;20.63;67.12;99050.50;7312645;19;128906;-38
2022/10/22 05:35:49;;;;;;;;;;;;;;;20.63;66.81;99056.56;7312945;19;129138;-38
2022/10/22 05:38:14;;;;;;;;;;;;;;;20.64;67.20;99062.63;7312533;19;130148;-39
2022/10/22 05:40:40;;;;;;;;;;;;;;;20.61;66.83;99068.09;7315645;19;129950;-38
2022/10/22 05:43:05;;;;;;;;;;;;;;;20.61;67.23;99070.72;7313514;19;129105;-37
2022/10/22 05:45:30;;;;;;;;;;;;;;;20.64;66.82;99078.28;7315055;19;129160;-39
2022/10/22 05:47:55;;;;;;;;;;;;;;;20.63;67.22;99071.41;7312008;19;129193;-38
2022/10/22 05:50:20;;;;;;;;;;;;;;;20.62;67.27;99064.53;7312906;19;130358;-40
2022/10/22 05:52:46;;;;;;;;;;;;;;;20.63;66.47;99071.41;7312758;19;129148;-38
2022/10/22 05:55:11;;;;;;;;;;;;;;;20.62;67.32;99068.00;7312976;19;129337;-39
2022/10/22 05:57:38;;;;;;;;;;;;;;;20.61;66.80;99079.38;7312302;19;130304;-36
2022/10/22 06:00:03;;;;;;;;;;;;;;;20.64;66.75;99078.28;7315128;19;133043;-40
2022/10/22 06:02:28;;;;;;;;;;;;;;;20.63;67.39;99087.06;7313284;19;129312;-40
2022/10/22 06:04:54;;;;;;;;;;;;;;;20.60;67.01;99092.59;7313930;19;130368;-38
2022/10/22 06:07:19;;;;;;;;;;;;;;;20.62;67.21;99091.50;7313091;19;129535;-38
2022/10/22 06:09:46;;;;;;;;;;;;;;;20.63;67.18;99097.50;7307192;19;130478;-37
2022/10/22 06:12:12;;;;;;;;;;;;;;;20.60;67.43;99097.81;7312894;19;129896;-39
2022/10/22 06:14:37;;;;;;;;;;;;;;;20.61;67.21;99104.66;7312905;19;129282;-36
2022/10/22 06:17:03;;;;;;;;;;;;;;;20.57;67.02;99098.09;7312472;19;129163;-37
2022/10/22 06:19:30;;;;;;;;;;;;;;;20.61;66.92;99109.91;7311750;19;129748;-38
2022/10/22 06:21:55;;;;;;;;;;;;;;;20.57;67.66;99103.34;7311727;19;129733;-40
2022/10/22 06:24:20;;;;;;;;;;;;;;;20.62;67.49;99107.16;7310249;19;128964;-38
2022/10/22 06:26:48;;;;;;;;;;;;;;;20.61;67.23;99104.66;7312198;19;129450;-39
2022/10/22 06:29:13;;;;;;;;;;;;;;;20.63;67.24;99102.75;7312177;19;129812;-39
2022/10/22 06:31:38;;;;;;;;;;;;;;;20.63;67.08;99108.78;7311061;19;128948;-39
2022/10/22 06:34:09;;;;;;;;;;;;;;;20.63;67.26;99097.50;7312536;19;128921;-39
2022/10/22 06:36:34;;;;;;;;;;;;;;;20.63;67.39;99100.13;7309886;19;129896;-38
2022/10/22 06:39:00;;;;;;;;;;;;;;;20.63;66.81;99110.56;7309178;19;130142;-40
2022/10/22 06:41:25;;;;;;;;;;;;;;;20.65;67.04;99116.47;7310453;19;129415;-40
2022/10/22 06:43:52;;;;;;;;;;;;;;;20.66;66.96;99116.34;7310053;19;129075;-38
2022/10/22 06:46:18;;;;;;;;;;;;;;;20.64;66.49;99135.75;7312626;19;131247;-39
2022/10/22 06:48:47;;;;;;;;;;;;;;;20.63;67.19;99144.53;7310285;19;130366;-38
2022/10/22 06:51:13;;;;;;;;;;;;;;;20.62;66.96;99143.72;7312024;19;130978;-38
2022/10/22 06:53:39;;;;;;;;;;;;;;;20.58;67.23;99136.31;7311911;19;130954;-39
2022/10/22 06:56:05;;;;;;;;;;;;;;;20.64;67.43;99138.34;7312211;19;130347;-37
2022/10/22 06:58:30;;;;;;;;;;;;;;;20.62;67.09;99140.28;7309343;19;130271;-39
2022/10/22 07:01:02;;;;;;;;;;;;;;;20.60;67.36;99139.59;7310510;19;130542;-39
2022/10/22 07:03:28;;;;;;;;;;;;;;;20.61;67.16;99146.47;7309934;19;129753;-39
2022/10/22 07:05:53;;;;;;;;;;;;;;;20.60;66.90;99150.88;7312328;19;130865;-37
2022/10/22 07:08:18;;;;;;;;;;;;;;;20.61;66.67;99149.06;7307662;19;130435;-39
2022/10/22 07:10:43;;;;;;;;;;;;;;;20.62;67.16;99159.41;7310177;19;129046;-38
2022/10/22 07:13:08;;;;;;;;;;;;;;;20.64;67.11;99164.47;7310750;19;129033;-39
2022/10/22 07:15:34;;;;;;;;;;;;;;;20.60;67.06;99166.56;7311426;19;129156;-39
2022/10/22 07:17:59;;;;;;;;;;;;;;;20.64;66.75;99172.31;7310080;19;129582;-39
2022/10/22 07:20:24;;;;;;;;;;;;;;;20.63;67.12;99173.25;7309673;19;129503;-39
2022/10/22 07:22:49;;;;;;;;;;;;;;;20.67;66.63;99169.41;7306655;19;130199;-38
2022/10/22 07:25:15;;;;;;;;;;;;;;;20.65;66.74;99171.34;7310725;19;130105;-38
2022/10/22 07:27:40;;;;;;;;;;;;;;;20.68;66.46;99184.09;7308538;19;129136;-39
2022/10/22 07:30:05;;;;;;;;;;;;;;;20.67;67.21;99187.69;7309971;19;129195;-41
2022/10/22 07:32:31;;;;;;;;;;;;;;;20.67;66.42;99192.91;7310452;19;129248;-37
2022/10/22 07:34:56;;;;;;;;;;;;;;;20.66;66.77;99192.09;7311426;19;129076;-39
2022/10/22 07:37:21;;;;;;;;;;;;;;;20.65;67.01;99194.84;7308246;19;130690;-40
2022/10/22 07:39:47;;;;;;;;;;;;;;;20.67;66.66;99192.91;7309897;19;129460;-39
2022/10/22 07:42:12;;;;;;;;;;;;;;;20.67;67.09;99203.38;7310181;19;129551;-40
2022/10/22 07:44:37;;;;;;;;;;;;;;;20.65;67.12;99200.06;7307205;19;130273;-40
2022/10/22 07:47:03;;;;;;;;;;;;;;;20.64;67.13;99209.69;7308412;19;131228;-38
2022/10/22 07:49:28;;;;;;;;;;;;;;;20.58;67.22;99209.44;7310630;19;129753;-40
2022/10/22 07:51:53;;;;;;;;;;;;;;;20.50;67.45;99196.25;7310162;19;128971;-39
2022/10/22 07:54:18;;;;;;;;;;;;;;;20.58;67.39;99215.47;7310094;19;130893;-38
2022/10/22 07:56:43;;;;;;;;;;;;;;;20.62;67.32;99219.47;7308915;19;130250;-39
2022/10/22 07:59:09;;;;;;;;;;;;;;;20.64;67.08;99219.31;7309580;19;131000;-38
2022/10/22 08:01:34;;;;;;;;;;;;;;;20.65;66.60;99228.78;7310344;19;131050;-38
2022/10/22 08:03:59;;;;;;;;;;;;;;;20.63;66.93;99228.94;7307915;19;130153;-38
2022/10/22 08:06:24;;;;;;;;;;;;;;;20.63;66.95;99228.09;7309728;19;130468;-41
2022/10/22 08:08:49;;;;;;;;;;;;;;;20.58;67.56;99238.16;7307193;19;129346;-39
2022/10/22 08:11:15;;;;;;;;;;;;;;;20.59;67.04;99232.00;7309786;19;130394;-40
2022/10/22 08:13:40;;;;;;;;;;;;;;;20.58;67.55;99238.16;7313925;19;129651;-40
2022/10/22 08:16:05;;;;;;;;;;;;;;;20.53;66.85;99232.53;7316049;19;129742;-40
2022/10/22 08:18:30;;;;;;;;;;;;;;;20.61;67.50;99240.47;7315725;19;129283;-38
2022/10/22 08:20:56;;;;;;;;;;;;;;;20.54;67.47;99228.97;7315265;19;129210;-40
2022/10/22 08:23:21;;;;;;;;;;;;;;;20.57;66.87;99242.56;7314955;19;130260;-38
2022/10/22 08:25:46;;;;;;;;;;;;;;;20.61;67.00;99246.53;7315538;19;130591;-40
2022/10/22 08:28:12;;;;;;;;;;;;;;;20.63;67.21;99243.78;7316304;19;129675;-38
2022/10/22 08:30:37;;;;;;;;;;;;;;;20.64;66.68;99250.66;7315333;19;129171;-40
2022/10/22 08:33:03;;;;;;;;;;;;;;;20.57;66.86;99239.13;7315619;19;130093;-40
2022/10/22 08:35:28;;;;;;;;;;;;;;;20.65;67.19;99242.69;7315779;19;129475;-38
2022/10/22 08:37:54;;;;;;;;;;;;;;;20.65;67.14;99254.91;7315153;19;128895;-38
2022/10/22 08:40:24;;;;;;;;;;;;;;;20.64;66.64;99243.63;7314671;19;129466;-41
2022/10/22 08:43:05;;;;;;;;;;;;;;;20.62;66.69;99242.16;7312911;19;130219;-39
2022/10/22 08:45:34;;;;;;;;;;;;;;;20.60;66.90;99246.69;7315095;19;130188;-37
2022/10/22 08:48:18;;;;;;;;;;;;;;;20.62;66.54;99242.16;7313547;19;128857;-38
2022/10/22 08:50:45;;;;;;;;;;;;;;;20.66;67.32;99243.50;7315637;19;129295;-38
2022/10/22 08:53:19;;;;;;;;;;;;;;;20.65;67.08;99247.09;7314911;19;130096;-41
2022/10/22 08:55:45;;;;;;;;;;;;;;;20.62;67.10;99255.19;7316055;19;129605;-40
2022/10/22 08:58:19;;;;;;;;;;;;;;;20.61;67.54;99256.97;7313938;19;129162;-40
2022/10/22 09:00:56;;;;;;;;;;;;;;;20.60;67.58;99251.91;7314883;19;129544;-38
2022/10/22 09:03:30;;;;;;;;;;;;;;;20.64;66.79;99258.50;7313691;19;130174;-39
2022/10/22 09:06:01;;;;;;;;;;;;;;;20.62;66.65;99252.59;7315490;19;129185;-38
2022/10/22 09:08:26;;;;;;;;;;;;;;;20.63;66.80;99264.69;7313021;19;129790;-37
2022/10/22 09:10:56;;;;;;;;;;;;;;;20.63;67.16;99264.69;7314671;19;129429;-40
2022/10/22 09:13:22;;;;;;;;;;;;;;;20.53;67.36;99249.03;7314072;19;130113;-40
2022/10/22 09:15:53;;;;;;;;;;;;;;;20.62;67.11;99263.88;7316108;19;129507;-39
2022/10/22 09:18:18;;;;;;;;;;;;;;;20.63;66.64;99264.69;7313642;19;130052;-39
2022/10/22 09:20:49;;;;;;;;;;;;;;;20.57;67.34;99270.47;7313407;19;129460;-41
2022/10/22 09:23:17;;;;;;;;;;;;;;;20.62;66.63;99263.03;7311852;19;130172;-39
2022/10/22 09:25:43;;;;;;;;;;;;;;;20.63;67.24;99269.91;7312208;19;131095;-41
2022/10/22 09:28:09;;;;;;;;;;;;;;;20.66;67.20;99269.59;7314804;19;129473;-39
2022/10/22 09:30:36;;;;;;;;;;;;;;;20.66;66.73;99270.44;7314236;19;129530;-39
2022/10/22 09:33:01;;;;;;;;;;;;;;;20.60;66.54;99263.19;7315146;19;130673;-40
2022/10/22 09:35:27;;;;;;;;;;;;;;;20.62;66.66;99274.31;7313588;19;130103;-36
2022/10/22 09:37:55;;;;;;;;;;;;;;;20.60;67.22;99265.78;7314705;19;129454;-39
2022/10/22 09:40:21;;;;;;;;;;;;;;;20.61;66.87;99267.44;7313246;19;129961;-38
2022/10/22 09:42:47;;;;;;;;;;;;;;;20.64;67.04;99268.94;7313633;19;130992;-40
2022/10/22 09:45:25;;;;;;;;;;;;;;;20.63;67.14;99269.91;7314216;19;129538;-38
2022/10/22 09:48:01;;;;;;;;;;;;;;;20.67;66.71;99266.06;7312923;19;129180;-37
2022/10/22 09:50:46;;;;;;;;;;;;;;;20.64;67.17;99255.91;7313289;19;128857;-39
2022/10/22 09:53:12;;;;;;;;;;;;;;;20.57;67.02;99255.63;7313060;19;130339;-40
2022/10/22 09:55:38;;;;;;;;;;;;;;;20.61;67.38;99263.97;7313618;19;129595;-40
2022/10/22 09:58:03;;;;;;;;;;;;;;;20.63;66.90;99264.69;7311171;19;130094;-38
2022/10/22 10:00:29;;;;;;;;;;;;;;;20.59;67.66;99271.16;7313574;19;129523;-40
2022/10/22 10:02:57;;;;;;;;;;;;;;;20.52;66.90;99251.78;7312611;19;131649;-38
2022/10/22 10:05:28;;;;;;;;;;;;;;;20.62;66.87;99278.72;7313491;19;129206;-38
2022/10/22 10:07:53;;;;;;;;;;;;;;;20.63;66.84;99275.13;7311684;19;129547;-40
2022/10/22 10:10:23;;;;;;;;;;;;;;;20.61;67.30;99271.81;7313486;19;129532;-38
2022/10/22 10:13:00;;;;;;;;;;;;;;;20.60;67.31;99275.41;7313340;19;130163;-40
2022/10/22 10:15:35;;;;;;;;;;;;;;;20.59;67.08;99269.34;7313630;19;130458;-41
2022/10/22 10:18:18;;;;;;;;;;;;;;;20.60;67.39;99284.06;7311297;19;129103;-39
2022/10/22 10:20:49;;;;;;;;;;;;;;;20.60;66.83;99276.25;7312278;19;129459;-40
2022/10/22 10:23:26;;;;;;;;;;;;;;;20.64;67.12;99282.00;7311368;19;130089;-40
2022/10/22 10:26:10;;;;;;;;;;;;;;;20.61;67.51;99290.09;7311343;19;131328;-40
2022/10/22 10:28:51;;;;;;;;;;;;;;;20.62;66.80;99289.16;7310022;19;128993;-39
2022/10/22 10:31:16;;;;;;;;;;;;;;;20.63;67.32;99282.97;7312383;19;129348;-39
2022/10/22 10:34:00;;;;;;;;;;;;;;;20.59;66.72;99287.63;7312172;19;130344;-38
2022/10/22 10:36:36;;;;;;;;;;;;;;;20.60;66.83;99283.25;7311600;19;130274;-39
2022/10/22 10:39:04;;;;;;;;;;;;;;;20.65;67.27;99283.66;7309499;19;129280;-39
2022/10/22 10:41:41;;;;;;;;;;;;;;;20.62;66.56;99278.72;7311343;19;129237;-41
2022/10/22 10:44:33;;;;;;;;;;;;;;;20.59;66.47;99284.22;7310667;19;129443;-41
2022/10/22 10:47:16;;;;;;;;;;;;;;;20.61;66.81;99282.28;7308259;19;131601;-40
2022/10/22 10:49:42;;;;;;;;;;;;;;;20.59;67.31;99290.25;7310492;19;129405;-40
2022/10/22 10:52:10;;;;;;;;;;;;;;;20.64;67.15;99289.84;7310754;19;129276;-37
2022/10/22 10:54:35;;;;;;;;;;;;;;;20.62;67.29;99290.00;7311936;19;130325;-38
2022/10/22 10:57:01;;;;;;;;;;;;;;;20.61;67.59;99298.78;7310414;19;130565;-41
2022/10/22 10:59:45;;;;;;;;;;;;;;;20.51;67.05;99271.03;7311424;19;129436;-40
2022/10/22 11:02:36;;;;;;;;;;;;;;;20.62;67.07;99294.38;7310569;19;128969;-39
2022/10/22 11:05:10;;;;;;;;;;;;;;;20.59;66.79;99295.47;7308864;19;129537;-39
2022/10/22 11:07:40;;;;;;;;;;;;;;;20.61;66.89;99305.78;7309108;19;130391;-38
2022/10/22 11:10:14;;;;;;;;;;;;;;;20.61;67.18;99311.00;7311724;19;128950;-37
2022/10/22 11:12:42;;;;;;;;;;;;;;;20.54;67.35;99286.44;7310075;19;130473;-38
2022/10/22 11:15:15;;;;;;;;;;;;;;;20.66;67.02;99296.56;7311622;19;130188;-39
2022/10/22 11:17:43;;;;;;;;;;;;;;;20.63;66.72;99301.25;7309803;19;129612;-40
2022/10/22 11:20:21;;;;;;;;;;;;;;;20.64;67.48;99305.53;7309810;19;130262;-39
2022/10/22 11:22:49;;;;;;;;;;;;;;;20.64;66.97;99303.72;7309947;19;129185;-38
2022/10/22 11:25:17;;;;;;;;;;;;;;;20.61;66.84;99300.56;7307706;19;130232;-39
2022/10/22 11:27:42;;;;;;;;;;;;;;;20.58;67.36;99293.00;7307693;19;129610;-40
2022/10/22 11:30:11;;;;;;;;;;;;;;;20.55;67.22;99282.84;7309055;19;129235;-40
2022/10/22 11:32:37;;;;;;;;;;;;;;;20.62;66.78;99291.78;7310398;19;128919;-38
2022/10/22 11:35:05;;;;;;;;;;;;;;;20.68;66.96;99302.47;7310581;19;129837;-39
2022/10/22 11:37:33;;;;;;;;;;;;;;;20.67;66.43;99300.00;7308599;19;129223;-39
2022/10/22 11:40:04;;;;;;;;;;;;;;;20.65;66.60;99304.53;7309879;19;129073;-39
2022/10/22 11:42:33;;;;;;;;;;;;;;;20.62;66.90;99294.38;7309927;19;129381;-39
2022/10/22 11:45:14;;;;;;;;;;;;;;;20.63;67.12;99296.84;7309769;19;130672;-38
2022/10/22 11:47:57;;;;;;;;;;;;;;;20.63;67.40;99303.84;7306785;19;131265;-38
2022/10/22 11:50:27;;;;;;;;;;;;;;;20.60;66.69;99301.53;7310182;19;129109;-40
2022/10/22 11:53:03;;;;;;;;;;;;;;;20.52;67.33;99294.41;7309007;19;129260;-40
2022/10/22 11:55:31;;;;;;;;;;;;;;;20.64;66.99;99302.91;7309893;19;130450;-41
2022/10/22 11:57:58;;;;;;;;;;;;;;;20.65;66.49;99299.31;7307200;19;130584;-39
2022/10/22 12:00:40;;;;;;;;;;;;;;;20.62;66.72;99300.44;7310254;19;130210;-38
2022/10/22 12:03:22;;;;;;;;;;;;;;;20.58;67.48;99299.06;7309058;19;129269;-40
2022/10/22 12:06:01;;;;;;;;;;;;;;;20.66;67.09;99300.94;7311182;19;131638;-40
2022/10/22 12:08:26;;;;;;;;;;;;;;;20.62;67.36;99299.59;7308076;19;129277;-39
2022/10/22 12:11:09;;;;;;;;;;;;;;;20.60;67.27;99299.75;7309580;19;129499;-39
2022/10/22 12:13:55;;;;;;;;;;;;;;;20.64;66.70;99301.09;7309261;19;129727;-41
2022/10/22 12:16:22;;;;;;;;;;;;;;;20.65;67.18;99300.16;7309600;19;130297;-40
2022/10/22 12:18:48;;;;;;;;;;;;;;;20.61;67.26;99292.72;7306307;19;130236;-38
2022/10/22 12:21:14;;;;;;;;;;;;;;;20.62;66.93;99294.38;7310941;19;129703;-39
2022/10/22 12:23:40;;;;;;;;;;;;;;;20.61;67.04;99298.78;7309187;19;129159;-39
2022/10/22 12:26:20;;;;;;;;;;;;;;;20.61;67.19;99305.78;7308145;19;129630;-37
2022/10/22 12:28:45;;;;;;;;;;;;;;;20.62;66.71;99299.59;7306550;19;130724;-39
2022/10/22 12:31:14;;;;;;;;;;;;;;;20.66;66.82;99300.94;7308753;19;129065;-41
2022/10/22 12:33:39;;;;;;;;;;;;;;;20.59;66.85;99294.66;7308856;19;130227;-39
2022/10/22 12:36:05;;;;;;;;;;;;;;;20.61;67.14;99301.38;7307603;19;129386;-38
2022/10/22 12:38:30;;;;;;;;;;;;;;;20.60;66.86;99296.31;7306207;19;129372;-39